Time;durP1;ratioP1;P1;durP2;ratioP2;P2;SDS_P1;SDS_P2;PMS_P1;PMS_P2;Temp;Humidity;BMP_temperature;BMP_pressure;BME280_temperature;BME280_humidity;BME280_pressure;Samples;Min_cycle;Max_cycle;Signal;HPM_P1;HPM_P2
2020/12/30 00:00:29;;;;;;;28.49;22.30;;;3.60;99.90;;;8.01;87.67;99539.52;1675322;75;24987;-80
2020/12/30 00:02:46;;;;;;;29.17;21.75;;;3.50;99.90;;;8.04;88.90;99538.22;1709648;74;25001;-84
2020/12/30 00:05:09;;;;;;;29.41;22.20;;;3.40;99.90;;;7.90;88.41;99534.34;1715164;74;24443;-82
2020/12/30 00:07:32;;;;;;;27.04;22.01;;;3.30;99.90;;;7.87;88.45;99536.06;1687663;75;24512;-82
2020/12/30 00:09:51;;;;;;;30.27;22.91;;;3.30;99.90;;;7.85;89.61;99535.19;1705970;74;24501;-80
2020/12/30 00:12:07;;;;;;;29.06;20.11;;;3.20;99.90;;;7.79;88.94;99538.66;1706466;74;24446;-84
2020/12/30 00:14:25;;;;;;;34.04;24.00;;;3.10;99.90;;;7.59;88.47;99528.27;1706757;74;24931;-82
2020/12/30 00:16:42;;;;;;;30.97;21.89;;;3.00;99.90;;;7.62;88.95;99533.87;1706786;74;24917;-80
2020/12/30 00:19:01;;;;;;;28.95;20.76;;;2.90;99.90;;;7.42;87.56;99532.56;1705959;74;24469;-80
2020/12/30 00:21:26;;;;;;;29.93;20.57;;;2.90;99.90;;;7.30;87.43;99531.22;1712670;74;24542;-83
2020/12/30 00:23:44;;;;;;;33.79;24.94;;;2.80;99.90;;;7.23;87.76;99533.38;1708467;74;24522;-82
2020/12/30 00:26:04;;;;;;;34.15;25.38;;;2.70;99.90;;;7.37;88.79;99535.56;1716121;74;24503;-80
2020/12/30 00:28:26;;;;;;;35.14;26.13;;;2.70;99.90;;;7.33;88.24;99540.73;1706858;74;24526;-81
2020/12/30 00:30:42;;;;;;;34.20;22.70;;;2.60;99.90;;;7.47;89.32;99541.63;1702702;74;24438;-83
2020/12/30 00:33:04;;;;;;;33.98;23.51;;;2.60;99.90;;;7.24;87.47;99546.74;1676716;75;24518;-81
2020/12/30 00:35:21;;;;;;;37.04;24.74;;;2.50;99.90;;;7.24;88.07;99538.14;1712137;74;24965;-82
2020/12/30 00:37:40;;;;;;;32.34;20.82;;;2.50;99.90;;;7.16;87.91;99548.89;1711794;74;24504;-81
2020/12/30 00:40:00;;;;;;;41.19;28.60;;;2.40;99.90;;;7.07;87.56;99555.31;1707353;74;24445;-81
2020/12/30 00:42:17;;;;;;;41.43;26.19;;;2.40;99.90;;;7.23;90.36;99548.03;1705943;75;24469;-80
2020/12/30 00:44:35;;;;;;;34.66;23.32;;;2.30;99.90;;;7.11;89.29;99546.72;1686691;74;24922;-80
2020/12/30 00:46:56;;;;;;;35.97;25.45;;;2.30;99.90;;;6.99;88.07;99555.70;1707239;74;25044;-82
2020/12/30 00:49:16;;;;;;;23.58;14.98;;;2.30;99.90;;;6.93;87.72;99554.39;1674887;76;24396;-81
2020/12/30 00:51:32;;;;;;;36.44;26.18;;;2.20;99.90;;;6.76;87.76;99550.45;1719910;74;24444;-80
2020/12/30 00:53:51;;;;;;;41.00;28.69;;;2.20;99.90;;;6.91;89.23;99561.28;1711443;74;24517;-82
2020/12/30 00:56:11;;;;;;;39.76;26.92;;;2.20;99.90;;;7.12;90.39;99555.78;1706058;74;24452;-80
2020/12/30 00:58:28;;;;;;;40.67;26.72;;;2.20;99.90;;;7.16;89.75;99562.68;1706315;74;24545;-85
2020/12/30 01:00:46;;;;;;;25.91;17.49;;;2.20;99.90;;;7.15;88.99;99565.27;1683437;75;24518;-81
2020/12/30 01:03:04;;;;;;;40.22;27.73;;;2.20;99.90;;;6.69;88.55;99564.61;1669879;75;24406;-82
2020/12/30 01:05:20;;;;;;;35.61;26.57;;;2.20;99.90;;;7.04;90.50;99566.95;1714094;74;24922;-82
2020/12/30 01:07:36;;;;;;;33.97;21.69;;;2.20;99.90;;;7.02;90.46;99563.06;1673710;75;25000;-84
2020/12/30 01:09:55;;;;;;;41.23;27.14;;;2.20;99.90;;;6.96;89.16;99575.98;1705444;74;24453;-81
2020/12/30 01:12:13;;;;;;;39.75;27.48;;;2.20;99.90;;;7.07;90.12;99573.42;1712739;74;24898;-82
2020/12/30 01:14:34;;;;;;;37.91;25.89;;;2.20;99.90;;;7.11;89.99;99573.44;1718897;74;24440;-82
2020/12/30 01:16:57;;;;;;;33.46;21.23;;;2.20;99.90;;;6.85;88.81;99572.48;1708352;74;24489;-82
2020/12/30 01:19:30;;;;;;;35.73;23.79;;;2.10;99.90;;;6.55;89.21;99576.19;1706872;74;24981;-82
2020/12/30 01:21:47;;;;;;;40.39;27.42;;;2.10;99.90;;;6.78;88.94;99577.62;1679175;75;24493;-82
2020/12/30 01:24:04;;;;;;;33.75;24.42;;;2.00;99.90;;;6.87;89.57;99581.13;1711454;74;24429;-83
2020/12/30 01:26:20;;;;;;;33.31;20.99;;;2.00;99.90;;;6.74;89.00;99574.56;1706785;75;24455;-81
2020/12/30 01:28:37;;;;;;;42.28;28.02;;;2.00;99.90;;;6.68;89.04;99580.58;1706037;75;24496;-79
2020/12/30 01:30:54;;;;;;;39.93;27.60;;;2.00;99.90;;;6.80;90.58;99584.52;1710368;74;24454;-80
2020/12/30 01:33:11;;;;;;;43.45;29.15;;;2.00;99.90;;;6.89;90.07;99587.59;1694716;75;24544;-81
2020/12/30 01:35:27;;;;;;;43.44;29.01;;;1.90;99.90;;;6.88;90.19;99587.14;1706044;74;24502;-81
2020/12/30 01:37:44;;;;;;;39.17;27.22;;;1.90;99.90;;;6.89;90.20;99584.55;1662082;76;24546;-83
2020/12/30 01:40:05;;;;;;;44.71;30.81;;;1.90;99.90;;;6.76;89.10;99594.43;1710326;74;24448;-80
2020/12/30 01:42:22;;;;;;;43.28;28.70;;;1.90;99.90;;;6.76;90.97;99605.19;1711381;74;25004;-82
2020/12/30 01:44:40;;;;;;;40.78;27.45;;;1.90;99.90;;;6.91;90.45;99599.67;1714099;74;24414;-81
2020/12/30 01:47:00;;;;;;;41.50;26.93;;;1.90;99.90;;;6.83;89.26;99604.39;1714365;74;24439;-83
2020/12/30 01:49:20;;;;;;;45.40;27.56;;;1.90;99.90;;;6.88;89.33;99602.66;1708545;73;24444;-83
2020/12/30 01:51:46;;;;;;;43.98;29.74;;;1.90;99.90;;;6.83;88.39;99596.63;1706933;74;24977;-83
2020/12/30 01:54:05;;;;;;;47.71;30.25;;;1.90;99.90;;;6.90;89.67;99603.13;1706960;74;24971;-83
2020/12/30 01:56:25;;;;;;;43.29;29.04;;;1.90;99.90;;;6.94;90.89;99604.86;1705589;74;24862;-83
2020/12/30 01:58:42;;;;;;;40.93;27.57;;;1.90;99.90;;;7.03;90.32;99602.34;1710455;74;24453;-82
2020/12/30 02:01:03;;;;;;;29.76;15.62;;;1.90;99.90;;;7.00;89.33;99610.51;1712442;74;24534;-83
2020/12/30 02:03:32;;;;;;;43.62;27.95;;;1.90;99.90;;;6.73;88.81;99612.52;1711535;74;24910;-82
2020/12/30 02:05:49;;;;;;;40.41;22.48;;;2.00;99.90;;;7.17;90.11;99610.15;1708696;74;25057;-83
2020/12/30 02:08:06;;;;;;;43.01;29.42;;;2.10;99.90;;;7.08;88.97;99610.95;1705718;74;24523;-83
2020/12/30 02:10:24;;;;;;;34.62;23.60;;;2.20;99.90;;;7.26;90.24;99617.52;1705961;74;24912;-82
2020/12/30 02:12:42;;;;;;;40.09;28.14;;;2.20;99.90;;;7.19;89.87;99617.50;1707476;74;24449;-81
2020/12/30 02:15:00;;;;;;;37.48;25.79;;;2.30;99.90;;;7.28;90.52;99613.22;1705957;74;24569;-83
2020/12/30 02:17:18;;;;;;;34.77;23.71;;;2.40;99.90;;;7.32;90.12;99617.54;1715561;74;24496;-82
2020/12/30 02:19:35;;;;;;;40.47;27.32;;;2.40;99.90;;;7.44;90.16;99617.60;1706859;74;24491;-82
2020/12/30 02:21:55;;;;;;;41.28;27.47;;;2.50;99.90;;;7.49;90.47;99612.44;1716440;74;24538;-83
2020/12/30 02:24:15;;;;;;;39.01;27.51;;;2.50;99.90;;;7.65;90.75;99616.77;1706445;74;24452;-82
2020/12/30 02:26:31;;;;;;;37.90;26.51;;;2.60;99.90;;;7.63;90.77;99609.45;1707236;75;24464;-82
2020/12/30 02:28:50;;;;;;;39.12;26.54;;;2.60;99.90;;;7.54;90.36;99619.34;1714927;74;24440;-81
2020/12/30 02:31:06;;;;;;;35.44;24.00;;;2.60;99.90;;;7.61;90.65;99625.41;1709308;74;24450;-80
2020/12/30 02:33:24;;;;;;;40.69;26.49;;;2.70;99.90;;;7.48;89.96;99630.98;1728408;74;24940;-83
2020/12/30 02:35:40;;;;;;;38.91;27.79;;;2.70;99.90;;;7.46;89.94;99628.80;1708138;74;24973;-82
2020/12/30 02:37:56;;;;;;;38.89;27.03;;;2.70;99.90;;;7.64;91.68;99625.41;1706644;74;24456;-82
2020/12/30 02:40:13;;;;;;;36.75;25.29;;;2.70;99.90;;;7.81;91.13;99622.88;1714504;74;24957;-81
2020/12/30 02:42:30;;;;;;;34.74;21.07;;;2.70;99.90;;;7.55;90.27;99624.98;1719336;74;24530;-83
2020/12/30 02:44:50;;;;;;;30.72;21.96;;;2.80;99.90;;;7.58;90.17;99628.87;1706896;74;24480;-81
2020/12/30 02:47:06;;;;;;;36.98;26.72;;;2.80;99.90;;;7.55;90.39;99635.75;1675190;76;24456;-81
2020/12/30 02:49:25;;;;;;;36.58;24.85;;;2.80;99.90;;;7.70;91.49;99621.53;1707680;74;24417;-81
2020/12/30 02:51:45;;;;;;;35.52;25.36;;;2.80;99.90;;;7.64;90.54;99626.28;1717618;74;24455;-83
2020/12/30 02:54:04;;;;;;;36.73;25.16;;;2.80;99.90;;;7.74;91.35;99618.95;1716943;74;24897;-83
2020/12/30 02:56:22;;;;;;;34.82;25.90;;;2.90;99.90;;;7.70;90.56;99625.42;1707560;74;24449;-82
2020/12/30 02:58:43;;;;;;;29.04;19.27;;;2.90;99.90;;;7.74;91.48;99629.77;1706238;74;24448;-82
2020/12/30 03:00:59;;;;;;;30.75;18.58;;;2.90;99.90;;;7.59;90.40;99625.41;1706217;75;24473;-81
2020/12/30 03:03:16;;;;;;;34.23;23.53;;;2.90;99.90;;;7.50;90.92;99623.22;1705403;74;24966;-81
2020/12/30 03:05:33;;;;;;;33.48;24.50;;;2.90;99.90;;;7.57;91.21;99628.41;1709233;74;24516;-81
2020/12/30 03:07:49;;;;;;;28.80;19.09;;;2.90;99.90;;;7.71;90.91;99620.70;1705928;75;24964;-81
2020/12/30 03:10:08;;;;;;;36.11;23.54;;;2.90;99.90;;;7.59;90.22;99631.00;1705096;74;24403;-82
2020/12/30 03:12:26;;;;;;;35.15;22.42;;;2.90;99.90;;;7.57;90.30;99635.34;1706537;74;24956;-82
2020/12/30 03:14:45;;;;;;;33.12;22.48;;;2.90;99.90;;;7.41;89.90;99636.98;1705914;75;24453;-81
2020/12/30 03:17:02;;;;;;;32.60;24.53;;;2.80;99.90;;;7.52;89.65;99633.16;1705420;75;24485;-82
2020/12/30 03:19:21;;;;;;;31.64;21.84;;;2.80;99.90;;;7.61;90.17;99628.00;1706310;74;25046;-84
2020/12/30 03:21:40;;;;;;;30.87;20.38;;;2.70;99.90;;;7.58;89.77;99617.21;1714943;74;24885;-80
2020/12/30 03:23:56;;;;;;;34.25;23.02;;;2.70;99.90;;;7.54;89.52;99627.53;1708234;74;24905;-81
2020/12/30 03:26:18;;;;;;;35.77;24.85;;;2.70;99.90;;;7.53;89.54;99629.70;1706892;75;25154;-82
2020/12/30 03:28:34;;;;;;;32.57;21.70;;;2.70;99.90;;;7.70;89.86;99624.12;1707998;74;24973;-83
2020/12/30 03:30:50;;;;;;;38.29;25.45;;;2.70;99.90;;;7.61;89.21;99634.05;1706554;74;24437;-82
2020/12/30 03:33:08;;;;;;;34.40;25.06;;;2.70;99.90;;;7.82;89.12;99638.42;1677907;75;24883;-82
2020/12/30 03:35:25;;;;;;;34.19;23.87;;;2.70;99.90;;;7.63;88.87;99642.67;1720483;74;24417;-82
2020/12/30 03:37:42;;;;;;;24.00;15.20;;;2.70;99.90;;;7.79;88.83;99631.94;1709199;74;24475;-85
2020/12/30 03:39:59;;;;;;;32.40;21.64;;;2.80;99.90;;;7.66;88.46;99631.05;1715793;74;24481;-81
2020/12/30 03:42:18;;;;;;;34.39;22.05;;;2.80;99.90;;;7.79;88.83;99636.25;1731096;74;24456;-83
2020/12/30 03:44:41;;;;;;;33.39;22.84;;;2.90;99.90;;;7.86;88.61;99629.78;1728038;73;24894;-82
2020/12/30 03:46:58;;;;;;;35.32;23.72;;;2.90;99.90;;;7.74;88.53;99626.72;1728585;73;24523;-82
2020/12/30 03:49:14;;;;;;;34.44;22.71;;;2.90;99.90;;;7.79;89.17;99629.77;1725520;73;24894;-81
2020/12/30 03:51:31;;;;;;;33.34;23.38;;;2.90;99.90;;;7.74;89.06;99627.17;1705468;75;24437;-84
2020/12/30 03:53:47;;;;;;;35.06;24.22;;;2.80;99.90;;;7.82;88.81;99635.83;1661348;76;24897;-84
2020/12/30 03:56:12;;;;;;;33.82;24.27;;;2.80;99.90;;;7.73;88.90;99630.19;1677089;76;24523;-83
2020/12/30 03:58:28;;;;;;;33.35;23.28;;;2.80;99.90;;;7.87;88.61;99635.84;1695746;75;24483;-82
2020/12/30 04:00:46;;;;;;;32.58;23.29;;;2.80;99.90;;;7.80;88.29;99634.95;1725437;73;24934;-81
2020/12/30 04:03:05;;;;;;;22.81;15.18;;;2.90;99.90;;;7.84;88.16;99636.67;1736640;73;24878;-80
2020/12/30 04:05:21;;;;;;;32.34;23.19;;;2.80;99.90;;;7.52;88.65;99638.34;1731358;74;24448;-84
2020/12/30 04:07:37;;;;;;;30.60;20.24;;;2.80;99.90;;;7.87;88.71;99641.02;1701812;75;24458;-82
2020/12/30 04:09:58;;;;;;;32.57;23.36;;;2.90;99.90;;;7.67;87.90;99643.13;1698767;75;24902;-82
2020/12/30 04:12:16;;;;;;;35.06;23.15;;;2.80;99.90;;;7.79;89.06;99642.31;1683787;75;24540;-81
2020/12/30 04:14:35;;;;;;;36.76;24.75;;;2.80;99.90;;;7.89;88.27;99642.73;1685705;76;24499;-80
2020/12/30 04:16:51;;;;;;;36.10;23.60;;;2.80;99.90;;;8.08;88.00;99647.09;1675738;76;24519;-83
2020/12/30 04:19:07;;;;;;;33.74;24.46;;;2.90;99.90;;;8.12;87.58;99650.55;1674713;76;24923;-83
2020/12/30 04:21:25;;;;;;;35.98;23.10;;;3.00;99.90;;;8.32;87.69;99644.98;1691856;75;24958;-81
2020/12/30 04:23:42;;;;;;;33.11;24.15;;;3.10;99.90;;;8.24;87.54;99646.28;1698702;75;24461;-81
2020/12/30 04:25:58;;;;;;;34.73;24.97;;;3.20;99.90;;;8.42;88.12;99649.31;1692188;76;24549;-82
2020/12/30 04:28:15;;;;;;;35.56;24.56;;;3.30;99.90;;;8.55;87.48;99641.51;1696862;75;25021;-82
2020/12/30 04:30:31;;;;;;;30.13;20.48;;;3.40;99.90;;;8.55;87.70;99646.70;1696215;75;24518;-83
2020/12/30 04:32:58;;;;;;;36.80;23.28;;;3.40;99.90;;;8.30;88.07;99650.16;1698431;75;24883;-84
2020/12/30 04:35:17;;;;;;;33.34;23.65;;;3.40;99.90;;;8.44;88.28;99651.03;1697645;75;24920;-82
2020/12/30 04:37:34;;;;;;;32.72;22.06;;;3.40;99.90;;;8.53;88.13;99657.53;1703636;75;24922;-82
2020/12/30 04:39:51;;;;;;;36.68;24.72;;;3.40;99.90;;;8.32;88.57;99656.22;1698229;75;24471;-85
2020/12/30 04:42:11;;;;;;;32.22;21.41;;;3.50;99.90;;;8.44;88.56;99656.67;1692609;75;24871;-82
2020/12/30 04:44:34;;;;;;;32.09;23.28;;;3.50;99.90;;;8.37;88.20;99658.39;1689606;76;25937;-82
2020/12/30 04:46:56;;;;;;;31.98;22.69;;;3.50;99.90;;;8.43;88.45;99659.69;1695181;75;24549;-80
2020/12/30 04:49:14;;;;;;;31.75;23.87;;;3.40;99.90;;;8.29;88.49;99659.23;1694430;75;24450;-80
2020/12/30 04:51:34;;;;;;;29.71;21.17;;;3.40;99.90;;;8.25;88.36;99656.23;1727029;73;24512;-83
2020/12/30 04:53:53;;;;;;;30.57;20.85;;;3.20;99.90;;;8.12;87.98;99663.52;1737375;73;24976;-82
2020/12/30 04:56:15;;;;;;;31.45;23.07;;;3.20;99.90;;;8.02;88.17;99668.25;1725571;74;24515;-80
2020/12/30 04:58:33;;;;;;;28.36;19.37;;;3.20;99.90;;;8.27;88.09;99671.33;1690585;75;24439;-82
2020/12/30 05:00:50;;;;;;;29.53;20.70;;;3.20;99.90;;;8.16;87.67;99670.42;1731213;73;25243;-81
2020/12/30 05:03:14;;;;;;;29.49;21.00;;;3.20;99.90;;;8.11;87.84;99673.47;1722849;74;24498;-80
2020/12/30 05:05:32;;;;;;;33.80;22.91;;;3.20;99.90;;;8.21;88.21;99676.06;1729498;73;24943;-84
2020/12/30 05:07:49;;;;;;;34.00;24.71;;;3.20;99.90;;;8.23;88.12;99680.86;1671879;76;24502;-81
2020/12/30 05:10:16;;;;;;;26.11;17.53;;;3.20;99.90;;;8.41;88.07;99682.61;1671006;76;24614;-81
2020/12/30 05:12:36;;;;;;;32.00;23.11;;;3.30;99.90;;;8.14;88.73;99685.98;1732302;73;24418;-82
2020/12/30 05:14:54;;;;;;;31.46;22.20;;;3.40;99.90;;;8.45;89.11;99681.73;1666009;76;24548;-82
2020/12/30 05:17:14;;;;;;;33.34;24.21;;;3.40;99.90;;;8.48;88.46;99683.91;1722747;73;24510;-82
2020/12/30 05:19:31;;;;;;;25.41;17.26;;;3.40;99.90;;;8.41;88.95;99681.31;1722683;74;24526;-84
2020/12/30 05:21:52;;;;;;;34.34;24.00;;;3.40;99.90;;;8.21;89.02;99677.36;1690234;75;24472;-83
2020/12/30 05:24:13;;;;;;;29.14;21.35;;;3.40;99.90;;;8.45;89.29;99683.03;1722927;73;24996;-83
2020/12/30 05:26:33;;;;;;;32.74;23.33;;;3.40;99.90;;;8.37;88.88;99687.34;1690844;75;25105;-85
2020/12/30 05:28:53;;;;;;;30.73;22.83;;;3.50;99.90;;;8.44;88.81;99683.91;1723548;73;24433;-82
2020/12/30 05:31:12;;;;;;;29.10;21.26;;;3.50;99.90;;;8.55;88.53;99689.96;1730576;73;24833;-82
2020/12/30 05:33:33;;;;;;;33.04;23.73;;;3.50;99.90;;;8.53;88.32;99692.55;1693548;75;24462;-81
2020/12/30 05:35:50;;;;;;;30.73;23.40;;;3.50;99.90;;;8.53;88.24;99690.38;1723784;73;24446;-83
2020/12/30 05:38:13;;;;;;;28.50;21.00;;;3.50;99.90;;;8.40;88.33;99693.83;1730085;73;24987;-81
2020/12/30 05:40:33;;;;;;;33.78;23.58;;;3.40;99.90;;;8.24;88.22;99693.38;1726370;73;24499;-84
2020/12/30 05:42:53;;;;;;;30.57;21.90;;;3.40;99.90;;;8.18;88.90;99691.62;1722719;74;25273;-85
2020/12/30 05:45:18;;;;;;;25.87;19.13;;;3.30;99.90;;;8.17;88.31;99695.51;1722818;73;24919;-81
2020/12/30 05:47:35;;;;;;;27.06;17.78;;;3.30;99.90;;;8.20;88.19;99703.29;1661261;75;24510;-82
2020/12/30 05:50:02;;;;;;;23.11;17.87;;;3.30;99.90;;;8.19;88.54;99704.16;1722835;74;24935;-81
2020/12/30 05:52:21;;;;;;;26.94;18.64;;;3.30;99.90;;;8.34;88.49;99706.80;1667094;76;24483;-81
2020/12/30 05:54:40;;;;;;;28.79;18.03;;;3.30;99.90;;;8.29;88.59;99710.69;1732785;73;24575;-83
2020/12/30 05:56:58;;;;;;;35.15;25.55;;;3.40;99.90;;;8.40;88.29;99710.69;1673693;76;24506;-82
2020/12/30 05:59:17;;;;;;;38.46;26.29;;;3.50;99.90;;;8.72;88.71;99706.39;1673848;76;24557;-82
2020/12/30 06:01:36;;;;;;;32.60;24.44;;;3.50;99.90;;;8.71;88.58;99705.97;1722886;73;24441;-83
2020/12/30 06:03:52;;;;;;;31.61;23.47;;;3.60;99.90;;;8.65;88.94;99714.59;1689932;76;24488;-83
2020/12/30 06:06:09;;;;;;;29.93;19.33;;;3.70;99.90;;;8.72;89.05;99717.64;1722803;73;24457;-83
2020/12/30 06:08:30;;;;;;;35.80;24.91;;;3.70;99.90;;;8.56;88.64;99718.92;1740030;73;24490;-81
2020/12/30 06:10:50;;;;;;;29.41;20.81;;;3.70;99.90;;;8.80;89.52;99716.33;1689946;75;24864;-82
2020/12/30 06:13:07;;;;;;;27.41;20.62;;;3.70;99.90;;;8.73;89.15;99715.89;1736980;73;24623;-82
2020/12/30 06:15:37;;;;;;;24.04;16.20;;;3.70;99.90;;;8.70;89.34;99714.17;1690291;75;24492;-82
2020/12/30 06:17:59;;;;;;;29.44;20.12;;;3.80;99.90;;;8.40;89.91;99719.34;1723081;73;24381;-83
2020/12/30 06:20:20;;;;;;;29.93;22.51;;;3.70;99.90;;;8.61;89.77;99720.67;1737186;73;24889;-82
2020/12/30 06:22:40;;;;;;;24.08;16.35;;;3.70;99.90;;;8.83;89.31;99726.70;1724953;73;24562;-82
2020/12/30 06:25:04;;;;;;;31.00;21.03;;;3.70;99.90;;;8.76;88.76;99723.25;1671887;76;24449;-85
2020/12/30 06:27:32;;;;;;;32.02;22.79;;;3.80;99.90;;;8.85;88.33;99725.83;1686453;76;24454;-82
2020/12/30 06:29:54;;;;;;;33.77;23.41;;;3.80;99.90;;;8.93;88.39;99734.94;1722888;73;24422;-83
2020/12/30 06:32:36;;;;;;;27.83;20.63;;;3.80;99.90;;;8.94;88.10;99737.53;1672677;76;24874;-81
2020/12/30 06:34:53;;;;;;;30.37;20.65;;;3.90;99.90;;;8.83;88.84;99734.08;1733006;73;24502;-81
2020/12/30 06:37:13;;;;;;;29.47;21.24;;;3.90;99.90;;;8.78;88.71;99731.91;1724659;73;24941;-82
2020/12/30 06:39:31;;;;;;;29.54;21.19;;;3.80;99.90;;;8.78;88.95;99729.31;1689569;75;24493;-83
2020/12/30 06:42:04;;;;;;;30.60;22.08;;;3.80;99.90;;;8.90;88.34;99736.20;1723740;74;24950;-82
2020/12/30 06:44:38;;;;;;;26.66;20.24;;;3.90;99.90;;;8.98;88.17;99740.53;1684656;75;24882;-81
2020/12/30 06:46:55;;;;;;;28.17;19.67;;;3.80;99.90;;;8.86;87.93;99746.17;1725397;73;24440;-81
2020/12/30 06:49:11;;;;;;;29.97;21.52;;;3.80;99.90;;;8.93;88.49;99750.52;1725504;73;24527;-84
2020/12/30 06:51:29;;;;;;;26.09;17.72;;;3.90;99.90;;;8.94;88.41;99753.11;1687410;75;24474;-81
2020/12/30 06:53:53;;;;;;;25.78;20.03;;;3.90;99.90;;;8.85;88.26;99756.13;1716035;73;24640;-81
2020/12/30 06:56:12;;;;;;;25.14;18.51;;;3.90;99.90;;;8.91;88.30;99750.94;1716724;73;24464;-81
2020/12/30 06:58:52;;;;;;;26.40;18.89;;;3.90;99.90;;;8.91;88.54;99753.53;1717690;73;24991;-81
2020/12/30 07:01:08;;;;;;;25.72;19.85;;;3.90;99.90;;;8.88;88.12;99763.92;1701798;73;24548;-83
2020/12/30 07:03:24;;;;;;;24.38;18.33;;;3.90;99.90;;;8.80;88.39;99767.78;1668842;76;24942;-82
2020/12/30 07:05:43;;;;;;;26.48;19.11;;;3.90;99.90;;;8.79;88.31;99769.96;1717002;73;24923;-82
2020/12/30 07:08:12;;;;;;;23.79;18.50;;;3.90;99.90;;;8.67;89.02;99775.58;1716927;73;24892;-82
2020/12/30 07:10:28;;;;;;;26.48;19.76;;;3.90;99.90;;;8.84;89.12;99780.34;1716913;73;24852;-81
2020/12/30 07:12:46;;;;;;;28.15;20.40;;;3.90;99.90;;;8.87;88.92;99789.42;1684351;75;24958;-80
2020/12/30 07:15:04;;;;;;;25.03;18.77;;;3.90;99.90;;;8.92;88.66;99794.19;1705166;74;24476;-83
2020/12/30 07:17:24;;;;;;;26.38;18.97;;;3.90;99.90;;;8.76;89.32;99798.94;1732462;73;24478;-81
2020/12/30 07:19:46;;;;;;;19.36;13.21;;;3.90;99.90;;;8.89;89.49;99797.66;1698652;74;24452;-81
2020/12/30 07:22:24;;;;;;;19.68;13.50;;;4.00;99.90;;;8.67;89.54;99795.04;1725508;73;24519;-82
2020/12/30 07:24:47;;;;;;;23.41;14.88;;;4.00;99.90;;;8.65;89.87;99809.73;1723621;73;24458;-82
2020/12/30 07:27:08;;;;;;;24.39;18.26;;;3.90;99.90;;;8.59;89.53;99805.84;1726064;73;24452;-82
2020/12/30 07:29:26;;;;;;;27.05;19.28;;;3.90;99.90;;;8.79;89.45;99807.59;1726057;73;24844;-82
2020/12/30 07:31:44;;;;;;;24.32;19.12;;;3.90;99.90;;;8.90;88.79;99811.48;1734455;73;24430;-81
2020/12/30 07:34:02;;;;;;;26.62;19.94;;;3.90;99.90;;;8.87;88.48;99805.00;1729177;73;24349;-80
2020/12/30 07:36:21;;;;;;;25.00;19.37;;;3.90;99.90;;;8.93;88.08;99806.33;1725928;73;25101;-83
2020/12/30 07:38:39;;;;;;;27.19;19.39;;;3.90;99.90;;;8.87;88.04;99811.48;1725734;73;24488;-80
2020/12/30 07:41:11;;;;;;;24.85;18.44;;;3.90;99.90;;;8.90;88.53;99812.36;1728961;73;24894;-85
2020/12/30 07:43:29;;;;;;;23.15;17.33;;;3.90;99.90;;;8.80;89.11;99815.80;1666333;75;24594;-80
2020/12/30 07:45:47;;;;;;;24.43;17.98;;;3.90;99.90;;;8.82;88.74;99820.58;1706154;74;24561;-79
2020/12/30 07:48:16;;;;;;;19.62;14.44;;;4.00;99.90;;;8.91;88.74;99819.31;1711294;74;24479;-82
2020/12/30 07:50:36;;;;;;;23.00;17.10;;;4.00;99.90;;;8.65;88.91;99831.79;1711822;74;24483;-82
2020/12/30 07:52:58;;;;;;;23.60;18.71;;;4.00;99.90;;;8.74;89.53;99830.53;1710298;74;24564;-81
2020/12/30 07:55:19;;;;;;;22.08;16.91;;;4.00;99.90;;;8.90;89.30;99830.53;1711670;74;24523;-83
2020/12/30 07:57:36;;;;;;;24.97;18.23;;;4.00;99.90;;;8.83;88.69;99826.22;1709350;74;24640;-82
2020/12/30 07:59:59;;;;;;;25.52;19.35;;;3.90;99.90;;;8.84;89.04;99837.02;1713755;74;24429;-82
2020/12/30 08:02:24;;;;;;;22.87;16.82;;;3.90;99.90;;;8.94;89.01;99827.52;1706078;74;25008;-82
2020/12/30 08:04:42;;;;;;;21.53;15.56;;;4.00;99.90;;;8.70;89.19;99837.86;1710341;74;24507;-85
2020/12/30 08:06:59;;;;;;;20.54;14.24;;;3.90;99.90;;;8.65;89.08;99836.98;1709202;74;24468;-84
2020/12/30 08:09:19;;;;;;;24.24;18.44;;;3.90;99.90;;;8.64;89.80;99843.92;1706839;75;24428;-82
2020/12/30 08:11:37;;;;;;;21.34;14.57;;;4.00;99.90;;;8.70;89.88;99846.52;1690356;74;24992;-81
2020/12/30 08:13:53;;;;;;;23.08;15.86;;;3.90;99.90;;;8.68;89.66;99848.66;1705130;74;24445;-82
2020/12/30 08:16:15;;;;;;;23.99;18.30;;;3.90;99.90;;;8.64;90.25;99845.64;1705260;73;24532;-84
2020/12/30 08:18:36;;;;;;;20.79;16.37;;;4.00;99.90;;;8.76;90.25;99858.20;1711902;74;24455;-86
2020/12/30 08:21:06;;;;;;;24.07;16.60;;;3.90;99.90;;;8.63;90.07;99851.70;1708962;73;24479;-85
2020/12/30 08:23:24;;;;;;;27.98;19.96;;;3.90;99.90;;;8.68;90.38;99854.73;1709042;74;24477;-77
2020/12/30 08:25:49;;;;;;;30.54;20.59;;;4.00;99.90;;;8.93;90.56;99863.44;1714741;73;25024;-87
2020/12/30 08:28:08;;;;;;;26.79;20.04;;;4.00;99.90;;;8.95;90.34;99866.88;1715984;73;24497;-87
2020/12/30 08:30:25;;;;;;;25.79;20.89;;;4.00;99.90;;;9.07;90.23;99861.27;1705658;74;24565;-83
2020/12/30 08:32:53;;;;;;;26.23;20.00;;;4.10;99.90;;;9.01;90.15;99862.56;1679642;75;24890;-88
2020/12/30 08:35:19;;;;;;;29.26;21.57;;;4.10;99.90;;;9.05;89.52;99863.02;1713801;74;24500;-85
2020/12/30 08:37:42;;;;;;;27.92;19.70;;;4.10;99.90;;;9.14;89.62;99866.91;1710374;74;24475;-88
2020/12/30 08:40:09;;;;;;;27.90;20.69;;;4.10;99.90;;;9.05;89.49;99877.72;1710260;74;24468;-88
2020/12/30 08:43:25;;;;;;;21.87;17.30;;;4.10;99.90;;;9.11;89.38;99873.83;1706109;75;25061;-88
2020/12/30 08:45:59;;;;;;;20.63;15.56;;;4.10;99.90;;;8.93;89.46;99887.65;1685635;75;24532;-89
2020/12/30 08:48:20;;;;;;;18.30;12.83;;;4.10;99.90;;;8.86;89.83;99876.84;1687028;75;24514;-89
2020/12/30 08:50:38;;;;;;;25.81;18.18;;;4.10;99.90;;;8.89;89.91;99888.52;1696628;75;25120;-88
2020/12/30 08:52:56;;;;;;;26.62;18.97;;;4.10;99.90;;;8.98;89.77;99887.66;1694008;75;24536;-90
2020/12/30 08:55:13;;;;;;;26.67;17.19;;;4.20;99.90;;;8.99;89.90;99885.05;1694083;75;24902;-84
2020/12/30 08:57:30;;;;;;;31.69;22.78;;;4.20;99.90;;;9.02;89.52;99888.98;1692578;75;24538;-86
2020/12/30 08:59:48;;;;;;;31.05;20.54;;;4.20;99.90;;;9.10;90.20;99892.42;1699769;75;24493;-81
2020/12/30 09:02:17;;;;;;;29.50;22.09;;;4.20;99.90;;;8.82;91.02;99894.55;1692600;74;24938;-82
2020/12/30 09:04:37;;;;;;;27.67;19.49;;;4.30;99.90;;;9.16;91.14;99896.77;1694227;75;24992;-78
2020/12/30 09:06:53;;;;;;;28.14;22.59;;;4.30;99.90;;;9.14;90.75;99897.20;1683583;75;24920;-76
2020/12/30 09:09:16;;;;;;;32.86;23.47;;;4.40;99.90;;;9.04;91.24;99912.35;1685488;75;24521;-79
2020/12/30 09:11:32;;;;;;;30.05;22.49;;;4.40;99.90;;;9.24;90.81;99905.44;1691321;75;24510;-79
2020/12/30 09:13:48;;;;;;;21.10;15.83;;;4.40;99.90;;;9.05;90.68;99913.66;1693248;75;24766;-79
2020/12/30 09:16:09;;;;;;;26.12;20.45;;;4.40;99.90;;;8.90;91.39;99916.63;1691853;74;24448;-76
2020/12/30 09:18:28;;;;;;;23.87;17.63;;;4.50;99.90;;;9.16;91.04;99912.36;1699633;75;24488;-77
2020/12/30 09:20:45;;;;;;;23.27;17.73;;;4.50;99.90;;;9.08;90.74;99920.14;1685841;75;24480;-77
2020/12/30 09:23:05;;;;;;;28.12;21.38;;;4.50;99.90;;;9.01;91.25;99914.49;1694630;75;24707;-80
2020/12/30 09:25:29;;;;;;;29.74;22.85;;;4.60;99.90;;;9.20;91.68;99924.47;1687231;75;24927;-77
2020/12/30 09:27:48;;;;;;;24.57;16.46;;;4.60;99.90;;;9.44;90.73;99918.00;1688373;74;24485;-78
2020/12/30 09:30:12;;;;;;;21.54;15.41;;;4.60;99.90;;;9.15;91.00;99918.43;1664845;75;24447;-78
2020/12/30 09:32:39;;;;;;;27.26;21.20;;;4.60;99.90;;;9.07;91.34;99920.98;1686017;75;24993;-75
2020/12/30 09:35:04;;;;;;;25.55;18.78;;;4.60;99.90;;;9.54;90.96;99923.64;1689970;75;24478;-78
2020/12/30 09:37:24;;;;;;;22.61;16.36;;;4.70;99.90;;;9.33;91.23;99931.84;1690908;75;25062;-79
2020/12/30 09:39:42;;;;;;;23.11;17.04;;;4.70;99.90;;;9.20;91.22;99930.54;1682624;74;25065;-77
2020/12/30 09:42:10;;;;;;;25.92;20.37;;;4.80;99.90;;;9.44;91.06;99932.75;1685101;75;24522;-76
2020/12/30 09:44:29;;;;;;;22.44;18.33;;;4.80;99.90;;;9.35;90.97;99943.11;1698395;74;24504;-75
2020/12/30 09:46:55;;;;;;;25.52;19.59;;;4.80;99.90;;;9.33;90.58;99932.72;1682544;75;24547;-78
2020/12/30 09:49:15;;;;;;;22.81;16.08;;;4.80;99.90;;;9.31;91.06;99935.73;1706222;74;24403;-78